CST,Max TemperatureF,Mean TemperatureF,Min TemperatureF,Max Dew PointF,MeanDew PointF,Min DewpointF,Max Humidity, Mean Humidity, Min Humidity, Max Sea Level PressureIn, Mean Sea Level PressureIn, Min Sea Level PressureIn, Max VisibilityMiles, Mean VisibilityMiles, Min VisibilityMiles, Max Wind SpeedMPH, Mean Wind SpeedMPH, Max Gust SpeedMPH,PrecipitationIn, CloudCover, Events, WindDirDegrees
2012-12-1,,,,,,,,,,,,,,,,,,,,,,
2012-12-2,,,,,,,,,,,,,,,,,,,,,,
2012-12-3,,,,,,,,,,,,,,,,,,,,,,
2012-12-4,,,,,,,,,,,,,,,,,,,,,,
2012-12-5,57,42,26,32,30,27,100,69,36,30.34,30.21,30.04,10,10,10,8,2,,0.00,0,,135
2012-12-6,51,46,41,43,40,32,93,78,66,29.97,29.92,29.87,10,10,10,7,2,,0.00,4,Rain,122
2012-12-7,46,44,41,43,42,39,100,91,87,29.95,29.90,29.85,10,8,3,8,5,,0.00,8,Rain,6
2012-12-8,44,37,30,37,34,30,100,90,70,30.01,29.95,29.89,10,6,0,13,4,17,0.00,5,Fog-Rain,86
2012-12-9,42,32,23,39,30,14,100,80,59,30.07,29.93,29.83,10,7,0,20,7,25,0.00,5,Fog,309
2012-12-10,30,22,15,18,14,10,93,69,55,30.10,30.04,30.01,10,10,10,20,10,25,0.00,4,,287
2012-12-11,44,29,14,21,17,12,93,67,34,30.15,30.07,30.00,10,10,10,9,2,,0.00,0,,239
2012-12-12,50,34,19,21,16,10,93,51,20,30.22,30.15,30.11,10,10,10,18,4,24,0.00,0,,172
2012-12-13,55,42,28,25,20,16,80,47,28,30.15,30.12,30.07,10,10,10,16,7,22,0.00,0,,179
2012-12-14,51,40,28,41,30,23,93,64,44,30.12,29.98,29.73,10,10,2,15,4,30,0.00,4,Rain,139
2012-12-15,53,48,42,46,44,39,100,83,71,29.75,29.61,29.51,10,10,2,15,10,22,0.00,8,Rain,222
2012-12-16,42,37,32,37,35,32,100,94,81,29.79,29.75,29.70,10,4,0,8,3,,0.00,7,Fog,342
2012-12-17,44,37,30,36,32,30,100,88,66,29.78,29.74,29.69,10,6,2,8,4,,0.00,4,,268
2012-12-18,53,42,32,34,33,30,100,72,44,29.90,29.72,29.59,10,10,7,18,6,25,0.00,1,,240
2012-12-19,41,36,30,37,33,30,100,89,75,29.92,29.74,29.42,10,8,1,23,6,30,0.00,4,Rain-Snow-Thunderstorm,84
2012-12-20,37,30,23,36,24,16,100,84,69,30.21,29.84,29.37,10,6,0,31,19,40,0.00,5,Rain-Snow-Thunderstorm,306
2012-12-21,33,24,14,21,17,12,100,72,48,30.37,30.29,30.21,10,10,10,12,4,17,0.00,0,,291
2012-12-22,46,30,14,32,22,12,100,82,50,30.24,30.05,29.93,10,10,10,6,1,,0.00,0,,137
2012-12-23,32,26,21,27,23,21,100,84,69,30.01,29.95,29.92,10,10,7,8,3,,0.00,0,,345
2012-12-24,26,22,19,23,16,14,93,81,68,30.19,30.07,29.95,10,8,3,15,8,23,0.00,4,,334
2012-12-25,23,18,12,18,13,9,93,79,63,30.34,30.25,30.17,10,10,7,21,11,24,0.00,5,,4
2012-12-26,28,19,10,18,12,7,93,78,59,30.26,30.22,30.17,10,10,10,12,8,16,0.00,3,,327
2012-12-27,33,24,14,27,22,12,100,83,69,30.18,30.05,29.95,10,10,10,13,4,17,0.00,4,,101
2012-12-28,32,28,23,28,25,18,93,83,74,30.06,29.98,29.95,10,9,4,13,4,18,0.00,7,Snow,303
2012-12-29,32,24,17,21,18,16,100,78,55,30.30,30.22,30.06,10,9,5,16,8,23,0.00,4,Snow,288
2012-12-30,44,30,17,27,22,14,93,58,37,30.32,30.19,30.11,10,10,10,20,6,25,0.00,0,,180
2012-12-31,37,30,23,32,25,19,100,80,56,30.19,30.12,30.07,10,7,1,12,6,,0.00,7,Rain-Snow,343